• Join FlightAware (Why Join?)
  • Login
  • US Flag 
04:43PM EDT


 

Airport Tracker/Info


-or-


 

Live Flight TrackerFlight Track Log ✈ UAL4236 ✈ 15-Apr-2013 ✈ KELP - KIAH

Flight Track Log - Related Links

Times and Time Zones

All times are in EDT time to prevent confusion due to time zone crossing. See the UAL4236 flight status page for this flight to view local times or setup timezone preferences in your user account.

Time Position Orientation Groundspeed Altitude Reporting Facility
EDT Latitude Longitude Course Direction KTS MPH feet Rate Location/Type
12:17PM 31.7531 -106.4025 189° South 234 269 7,000  Level Albuquerque Center
12:18PM 31.7306 -106.3258 109° East 298 343 8,700 1,740 Climbing Albuquerque Center
12:19PM 31.7391 -105.8684 96° East  Level FlightAware Approximate
12:19PM 31.7122 -106.2225 102° East 304 350 10,600  Level Albuquerque Center
12:20PM 31.7252 -105.7431 100° East  Level FlightAware Approximate
12:20PM 31.7022 -106.1128 96° East 338 389 11,200  Level Albuquerque Center
12:21PM 31.7108 -105.6180 96° East  Level FlightAware Approximate
12:21PM 31.6922 -105.9889 95° East 376 433 12,400  Level Albuquerque Center
12:22PM 31.6811 -105.8614 96° East 391 450 13,600 1,080 Climbing Albuquerque Center
12:23PM 31.6706 -105.7347 96° East 391 450 14,700 1,140 Climbing Albuquerque Center
12:24PM 31.6569 -105.5786 96° East 397 457 16,000 1,140 Climbing Albuquerque Center
12:25PM 31.6467 -105.4478 95° East 400 460 17,100 960 Climbing Albuquerque Center
12:26PM 31.6342 -105.3156 96° East 406 467 18,000 900 Climbing Albuquerque Center
12:27PM 31.6225 -105.1836 96° East 406 467 19,000 900 Climbing Albuquerque Center
12:28PM 31.6114 -105.0453 95° East 418 481 19,900 780 Climbing Albuquerque Center
12:29PM 31.5989 -104.9069 96° East 422 486 20,700 840 Climbing Albuquerque Center
12:30PM 31.5861 -104.7650 96° East 429 494 21,700 1,020 Climbing Albuquerque Center
12:31PM 31.5725 -104.6228 96° East 434 499 22,900 1,200 Climbing Albuquerque Center
12:32PM 31.5564 -104.4556 96° East 433 498 24,300 1,200 Climbing Albuquerque Center
12:33PM 31.5428 -104.3150 96° East 433 498 25,400 1,020 Climbing Albuquerque Center
12:34PM 31.5294 -104.1750 96° East 432 497 26,500 900 Climbing Albuquerque Center
12:35PM 31.5158 -104.0331 96° East 434 499 27,300 900 Climbing Albuquerque Center
12:36PM 31.5019 -103.8903 96° East 438 504 28,400 1,200 Climbing Albuquerque Center
12:37PM 31.4861 -103.7242 96° East 436 502 29,900 1,260 Climbing Albuquerque Center
12:38PM 31.4719 -103.5833 97° East 435 501 31,100 1,080 Climbing Albuquerque Center
12:39PM 31.4542 -103.4411 98° East 439 505 32,200 1,140 Climbing Albuquerque Center
12:40PM 31.4358 -103.3011 99° East 437 503 33,500 1,200 Climbing Albuquerque Center
12:41PM 31.4175 -103.1628 99° East 433 498 34,700 720 Climbing Albuquerque Center
12:42PM 31.4003 -103.0247 98° East 431 496 35,000 120 Climbing Albuquerque Center
12:44PM 31.3778 -102.8472 98° East 453 521 35,000  Level Albuquerque Center
12:45PM 31.3583 -102.6928 98° East 473 544 35,000  Level Albuquerque Center
12:46PM 31.3369 -102.5294 99° East 490 564 35,000  Level Albuquerque Center
12:47PM 31.3147 -102.3592 99° East 509 586 35,000  Level Albuquerque Center
12:48PM 31.2950 -102.2036 98° East 491 565 35,000  Level Albuquerque Center
12:49PM 31.2731 -102.0469 99° East 491 565 35,000  Level Albuquerque Center
12:50PM 31.2519 -101.8814 98° East 493 567 35,000  Level Albuquerque Center
12:51PM 31.2303 -101.7236 99° East 493 567 35,000  Level Albuquerque Center
12:53PM 31.2101 -101.5775 99° East  Level FlightAware Approximate
12:53PM 31.1686 -101.2847 99° East 491 565 35,000  Level Houston Center
12:54PM 31.1478 -101.1253 99° East 495 570 35,000  Level Houston Center
12:56PM 31.1247 -100.9672 100° East 495 570 35,000  Level Houston Center
12:57PM 31.1017 -100.8094 100° East 494 568 35,000 -60 Level Houston Center
12:58PM 31.0794 -100.6506 99° East 496 571 34,900  Descending Houston Center
12:59PM 31.0494 -100.4631 101° East 491 565 35,000  Climbing Houston Center
01:00PM 31.0272 -100.3050 99° East 493 567 34,900  Descending Houston Center
01:01PM 31.0058 -100.1494 99° East 487 560 35,000  Climbing Houston Center
01:02PM 30.9828 -99.9931 100° East 487 560 35,000  Level Houston Center
01:03PM 30.9592 -99.8361 100° East 488 562 35,000  Level Houston Center
01:04PM 30.9347 -99.6778 100° East 493 567 35,000  Level Houston Center
01:05PM 30.9083 -99.4922 99° East 492 566 35,000  Level Houston Center
01:06PM 30.9072 -99.3306 90° East 492 566 35,000  Level Houston Center
01:07PM 30.9056 -99.1678 91° East 496 571 35,000 -300 Level Houston Center
01:08PM 30.9050 -99.0056 90° East 494 568 34,500 -840 Descending Houston Center
01:09PM 30.9003 -98.8453 92° East 492 566 33,300 -1,320 Descending Houston Center
01:10PM 30.8972 -98.6808 91° East 502 578 31,800 -1,440 Descending Houston Center
01:11PM 30.8928 -98.5167 92° East 504 580 30,300 -1,380 Descending Houston Center
01:12PM 30.8894 -98.3236 91° East 506 582 29,000 -660 Descending Houston Center
01:13PM 30.8853 -98.1550 92° East 516 594 29,000  Level Houston Center
01:14PM 30.8806 -97.9872 92° East 515 593 29,000  Level Houston Center
01:15PM 30.8769 -97.8192 91° East 515 593 29,000  Level Houston Center
01:16PM 30.8722 -97.6511 92° East 515 593 29,000  Level Houston Center
01:17PM 30.8667 -97.4853 92° East 513 590 29,000  Level Houston Center
01:18PM 30.8592 -97.2994 93° East 511 588 29,000  Level Houston Center
01:19PM 30.8564 -97.1283 91° East 520 598 29,000 -720 Level Houston Center
01:20PM 30.8461 -96.9656 94° East 505 581 27,600 -1,680 Descending Houston Center
01:21PM 30.7981 -96.8128 110° East 495 570 25,600 -2,220 Descending Houston Center
01:22PM 30.7442 -96.6669 113° Southeast 488 562 23,100 -2,640 Descending Houston Center
01:23PM 30.6842 -96.5019 113° Southeast 472 543 20,200 -2,640 Descending Houston Center
01:25PM 30.6364 -96.3633 112° Southeast 462 532 17,700 -2,520 Descending Houston Center
01:25PM 30.6122 -96.3006 114° Southeast 447 514 16,500 -2,640 Descending Houston Center
01:25PM 30.5961 -96.2586 114° Southeast 440 506 15,700 -2,340 Descending Houston Center
01:26PM 30.5886 -96.2331 109° East 440 506 15,200 -2,400 Descending Houston Center
01:26PM 30.5525 -96.1400 114° Southeast 403 464 13,300 -2,340 Descending Houston Center
01:27PM 30.5442 -96.1106 108° East 414 476 12,800 -2,280 Descending Houston Center
01:27PM 30.5086 -96.0189 114° Southeast 386 444 11,000 -2,040 Descending Houston Center
01:28PM 30.5025 -96.0025 113° Southeast 386 444 10,700 -1,020 Descending Houston Center
01:28PM 30.4678 -95.9097 113° Southeast 342 394 10,000 -720 Descending Houston Center
01:29PM 30.4644 -95.8989 110° East 344 396 10,000  Level Houston Center
01:29PM 30.4136 -95.8433 137° Southeast 285 328 10,000 -300 Level Houston Center
01:30PM 30.3897 -95.8381 169° South 296 341 9,700 -1,140 Descending Houston Center
01:30PM 30.3308 -95.8311 174° South 297 342 8,900 -1,200 Descending Houston Center
01:31PM 30.3092 -95.8267 170° South 292 336 8,500 -1,380 Descending Houston Center
01:31PM 30.2519 -95.8186 173° South 278 320 7,500 -1,380 Descending Houston Center
01:32PM 30.2322 -95.8156 172° South 280 322 7,100 -1,560 Descending Houston Center
01:33PM 30.1694 -95.8089 175° South 261 300 5,800 -1,500 Descending Houston Center
01:33PM 30.1589 -95.8061 167° South 268 308 5,600 -1,200 Descending Houston Center
01:34PM 30.1011 -95.7975 173° South 240 276 4,600 -1,080 Descending Houston Center
01:34PM 30.0925 -95.7950 166° South 245 282 4,500 -1,020 Descending Houston Center
01:35PM 30.0247 -95.7550 153° Southeast 244 281 3,300 -900 Descending Houston Center
01:36PM 30.0047 -95.7050 115° Southeast 245 282 3,000 -300 Descending Houston Center
01:36PM 30.0072 -95.6833 82° East 241 277 3,000  Level Houston Center
01:37PM 30.0064 -95.6278 91° East 242 278 3,000  Level Houston Center
01:37PM 30.0069 -95.6053 88° East 244 281 3,000  Level Houston Center
01:38PM 30.0058 -95.5506 91° East 232 267 3,000 -120 Level Houston Center
01:38PM 30.0064 -95.5289 88° East 241 277 2,900 -300 Descending Houston Center